Time;durP1;ratioP1;P1;durP2;ratioP2;P2;SDS_P1;SDS_P2;PMS_P1;PMS_P2;Temp;Humidity;BMP_temperature;BMP_pressure;BME280_temperature;BME280_humidity;BME280_pressure;Samples;Min_cycle;Max_cycle;Signal;HPM_P1;HPM_P2
2022/12/03 00:00:57;;;;;;;46.63;19.02;;;;;;;1.76;100.00;102208.34;5203006;28;20049;-74
2022/12/03 00:03:28;;;;;;;53.95;19.77;;;;;;;1.76;100.00;102203.06;5202614;28;20151;-73
2022/12/03 00:05:58;;;;;;;49.65;19.88;;;;;;;1.79;100.00;102209.03;5202796;28;20021;-74
2022/12/03 00:08:29;;;;;;;44.22;18.13;;;;;;;1.78;100.00;102201.19;5202941;28;20075;-75
2022/12/03 00:10:59;;;;;;;46.40;18.63;;;;;;;1.77;100.00;102196.84;5205009;28;20509;-75
2022/12/03 00:13:30;;;;;;;41.75;18.15;;;;;;;1.73;100.00;102201.41;5202714;28;20363;-74
2022/12/03 00:16:00;;;;;;;44.13;17.77;;;;;;;1.70;100.00;102193.63;5202266;28;20026;-74
2022/12/03 00:18:30;;;;;;;43.55;18.35;;;;;;;1.67;100.00;102191.13;5201945;28;20027;-75
2022/12/03 00:21:01;;;;;;;47.15;20.40;;;;;;;1.65;100.00;102187.69;5202762;28;20056;-74
2022/12/03 00:23:31;;;;;;;45.20;19.38;;;;;;;1.68;100.00;102192.00;5205810;28;20623;-75
2022/12/03 00:26:02;;;;;;;49.05;20.08;;;;;;;1.68;100.00;102184.06;5206491;28;20623;-75
2022/12/03 00:28:32;;;;;;;47.17;19.60;;;;;;;1.65;100.00;102189.50;5192909;28;20052;-74
2022/12/03 00:31:03;;;;;;;51.58;20.48;;;;;;;1.61;100.00;102186.16;5207114;28;20036;-73
2022/12/03 00:33:34;;;;;;;51.08;19.80;;;;;;;1.62;100.00;102195.81;5206416;28;20029;-73
2022/12/03 00:36:04;;;;;;;49.60;18.90;;;;;;;1.66;100.00;102186.78;5206910;28;20036;-74
2022/12/03 00:38:35;;;;;;;49.53;19.67;;;;;;;1.64;100.00;102182.50;5206086;28;20056;-74
2022/12/03 00:41:05;;;;;;;48.97;19.50;;;;;;;1.62;100.00;102177.28;5206514;28;20053;-74
2022/12/03 00:43:36;;;;;;;48.63;21.17;;;;;;;1.65;100.00;102177.13;5205509;28;20036;-73
2022/12/03 00:46:06;;;;;;;50.42;20.10;;;;;;;1.65;100.00;102184.19;5205922;28;20026;-73
2022/12/03 00:48:37;;;;;;;48.05;19.33;;;;;;;1.63;100.00;102186.06;5202509;28;20021;-73
2022/12/03 00:51:07;;;;;;;47.95;19.40;;;;;;;1.65;100.00;102174.47;5238716;28;20021;-73
2022/12/03 00:53:38;;;;;;;51.00;19.85;;;;;;;1.62;100.00;102185.22;5206216;28;20071;-74
2022/12/03 00:56:08;;;;;;;47.17;19.75;;;;;;;1.63;100.00;102183.44;5205519;28;20040;-73
2022/12/03 00:58:38;;;;;;;59.22;22.33;;;;;;;1.59;100.00;102187.16;5205486;28;20030;-73
2022/12/03 01:01:09;;;;;;;60.50;20.50;;;;;;;1.64;100.00;102185.13;5206150;28;20164;-74
2022/12/03 01:03:39;;;;;;;47.53;19.58;;;;;;;1.60;100.00;102187.06;5206014;28;20099;-73
2022/12/03 01:06:10;;;;;;;47.70;19.17;;;;;;;1.60;100.00;102189.72;5205881;28;20033;-73
2022/12/03 01:08:40;;;;;;;46.65;19.90;;;;;;;1.62;100.00;102174.63;5204934;28;20028;-72
2022/12/03 01:14:00;;;;;;;52.22;20.55;;;;;;;1.65;100.00;102179.75;5206108;28;20426;-73
2022/12/03 01:16:30;;;;;;;50.28;18.92;;;;;;;1.64;100.00;102186.00;5205715;28;20033;-73
2022/12/03 01:19:02;;;;;;;51.40;20.50;;;;;;;1.63;100.00;102180.78;5205053;28;20021;-73
2022/12/03 01:21:32;;;;;;;49.95;18.85;;;;;;;1.64;100.00;102183.34;5206141;28;20033;-73
2022/12/03 01:24:03;;;;;;;50.28;20.45;;;;;;;1.63;100.00;102186.06;5205665;28;20025;-74
2022/12/03 01:26:34;;;;;;;48.15;19.73;;;;;;;1.61;100.00;102178.22;5205628;28;20285;-73
2022/12/03 01:29:05;;;;;;;49.10;19.00;;;;;;;1.63;100.00;102179.00;5204920;28;20025;-73
2022/12/03 01:34:24;;;;;;;45.70;18.25;;;;;;;1.58;100.00;102172.22;5192856;28;20154;-73
2022/12/03 01:36:55;;;;;;;51.35;21.13;;;;;;;1.57;100.00;102175.81;5204977;28;20588;-73
2022/12/03 01:39:26;;;;;;;49.65;19.85;;;;;;;1.55;100.00;102178.50;5205009;28;20028;-73
2022/12/03 01:41:57;;;;;;;52.65;20.08;;;;;;;1.51;100.00;102183.09;5204914;28;20106;-73
2022/12/03 01:44:31;;;;;;;48.55;19.95;;;;;;;1.52;100.00;102173.38;5205254;28;20026;-73
2022/12/03 01:47:05;;;;;;;56.72;21.05;;;;;;;1.55;100.00;102176.72;5204692;28;20030;-73
2022/12/03 01:49:49;;;;;;;48.20;20.55;;;;;;;1.54;100.00;102167.06;5205283;28;20028;-73
2022/12/03 01:52:23;;;;;;;54.70;21.23;;;;;;;1.53;100.00;102170.66;5204919;28;20030;-72
2022/12/03 01:54:57;;;;;;;54.93;20.37;;;;;;;1.54;100.00;102172.34;5204813;28;20038;-74
2022/12/03 01:57:40;;;;;;;51.92;20.05;;;;;;;1.57;100.00;102170.50;5204848;28;20351;-74
2022/12/03 02:00:16;;;;;;;55.40;21.95;;;;;;;1.59;100.00;102168.63;5205485;28;20052;-73
2022/12/03 02:02:50;;;;;;;51.88;20.30;;;;;;;1.59;100.00;102171.28;5204915;28;20068;-74
2022/12/03 02:05:26;;;;;;;60.33;21.50;;;;;;;1.58;100.00;102170.44;5205450;28;20045;-74
2022/12/03 02:07:58;;;;;;;54.10;21.17;;;;;;;1.60;100.00;102179.13;5204745;28;20168;-73
2022/12/03 02:10:48;;;;;;;52.80;20.35;;;;;;;1.59;100.00;102172.13;5203961;28;20047;-73
2022/12/03 02:13:19;;;;;;;51.42;20.35;;;;;;;1.59;100.00;102173.94;5204617;28;20029;-73
2022/12/03 02:15:50;;;;;;;54.50;20.65;;;;;;;1.62;100.00;102171.13;5204904;28;20032;-73
2022/12/03 02:18:20;;;;;;;50.88;20.52;;;;;;;1.62;100.00;102174.63;5204610;28;20061;-73
2022/12/03 02:21:08;;;;;;;53.08;20.67;;;;;;;1.63;100.00;102170.19;5204765;28;20239;-74
2022/12/03 02:23:53;;;;;;;55.47;21.73;;;;;;;1.64;100.00;102164.81;5204194;28;20029;-73
2022/12/03 02:26:23;;;;;;;53.17;20.75;;;;;;;1.66;100.00;102162.97;5204694;28;20028;-74
2022/12/03 02:28:54;;;;;;;49.25;19.13;;;;;;;1.64;100.00;102159.53;5204191;28;20394;-73
2022/12/03 02:31:24;;;;;;;51.20;20.35;;;;;;;1.61;100.00;102165.00;5204568;28;20510;-73
2022/12/03 02:33:55;;;;;;;51.75;20.35;;;;;;;1.61;100.00;102170.28;5204303;28;20025;-73
2022/12/03 02:36:26;;;;;;;49.28;19.38;;;;;;;1.66;100.00;102162.13;5204260;28;20059;-73
2022/12/03 02:38:56;;;;;;;49.00;20.42;;;;;;;1.64;100.00;102162.19;5203985;28;20072;-73
2022/12/03 02:44:16;;;;;;;56.97;20.48;;;;;;;1.64;100.00;102156.88;5205018;28;20029;-74
2022/12/03 02:46:47;;;;;;;52.15;19.38;;;;;;;1.63;100.00;102155.19;5203110;28;20117;-74
2022/12/03 02:49:17;;;;;;;52.38;20.92;;;;;;;1.65;100.00;102153.31;5204393;28;20540;-74
2022/12/03 02:51:48;;;;;;;47.83;18.50;;;;;;;1.65;100.00;102152.44;5204731;28;20255;-74
2022/12/03 02:54:18;;;;;;;51.63;20.63;;;;;;;1.64;100.00;102156.03;5204586;28;20486;-73
2022/12/03 02:56:49;;;;;;;47.65;19.58;;;;;;;1.60;100.00;102149.19;5204434;28;20022;-74
2022/12/03 02:59:20;;;;;;;50.70;21.67;;;;;;;1.60;100.00;102154.47;5204203;28;20021;-74
2022/12/03 03:01:50;;;;;;;55.75;21.67;;;;;;;1.60;100.00;102155.31;5204306;28;20395;-73
2022/12/03 03:04:25;;;;;;;49.20;19.63;;;;;;;1.61;100.00;102154.41;5203994;28;20180;-73
2022/12/03 03:06:56;;;;;;;54.50;21.50;;;;;;;1.58;100.00;102157.19;5202492;28;20018;-73
2022/12/03 03:09:27;;;;;;;52.55;20.65;;;;;;;1.52;100.00;102162.81;5203371;28;20044;-73
2022/12/03 03:11:58;;;;;;;46.47;18.55;;;;;;;1.52;100.00;102150.44;5204285;28;20055;-73
2022/12/03 03:14:46;;;;;;;52.80;19.27;;;;;;;1.51;100.00;102150.53;5203920;28;20033;-73
2022/12/03 03:17:19;;;;;;;54.92;20.65;;;;;;;1.49;100.00;102139.13;5203462;28;20541;-74
2022/12/03 03:19:50;;;;;;;53.55;20.15;;;;;;;1.45;100.00;102141.06;5203422;28;20029;-74
2022/12/03 03:22:35;;;;;;;55.55;20.67;;;;;;;1.45;100.00;102145.50;5203636;28;20032;-72
2022/12/03 03:25:17;;;;;;;50.47;20.42;;;;;;;1.42;100.00;102135.09;5203608;28;20067;-73
2022/12/03 03:27:58;;;;;;;49.83;19.40;;;;;;;1.39;100.00;102146.66;5203543;28;20032;-72
2022/12/03 03:30:29;;;;;;;53.95;20.35;;;;;;;1.42;100.00;102140.38;5203184;28;20029;-73
2022/12/03 03:33:00;;;;;;;58.28;21.38;;;;;;;1.45;100.00;102138.44;5203740;28;20024;-73
2022/12/03 03:35:31;;;;;;;60.45;23.17;;;;;;;1.45;100.00;102137.56;5202223;28;20387;-73
2022/12/03 03:38:01;;;;;;;51.88;19.50;;;;;;;1.47;100.00;102138.38;5203378;28;20033;-73
2022/12/03 03:40:32;;;;;;;52.83;20.40;;;;;;;1.47;100.00;102133.94;5203570;28;20033;-73
2022/12/03 03:43:03;;;;;;;55.17;21.40;;;;;;;1.46;100.00;102134.03;5203440;28;20108;-72
2022/12/03 03:45:34;;;;;;;57.03;21.92;;;;;;;1.47;100.00;102135.72;5204238;28;20018;-72
2022/12/03 03:48:04;;;;;;;54.30;21.58;;;;;;;1.51;100.00;102139.94;5204000;28;20022;-72
2022/12/03 03:50:35;;;;;;;48.83;20.85;;;;;;;1.53;100.00;102135.41;5204174;28;20048;-72
2022/12/03 03:53:06;;;;;;;59.83;22.20;;;;;;;1.52;100.00;102131.06;5203408;28;20021;-72
2022/12/03 03:55:37;;;;;;;52.20;21.23;;;;;;;1.51;100.00;102135.50;5202940;28;20467;-73
2022/12/03 03:58:08;;;;;;;52.83;20.88;;;;;;;1.50;100.00;102127.63;5202621;28;20029;-72
2022/12/03 04:00:39;;;;;;;56.53;20.25;;;;;;;1.47;100.00;102133.94;5203358;28;20053;-73
2022/12/03 04:03:10;;;;;;;56.90;21.00;;;;;;;1.48;100.00;102129.50;5203325;28;20026;-73
2022/12/03 04:05:40;;;;;;;57.17;21.25;;;;;;;1.50;100.00;102128.47;5201534;28;20071;-73
2022/12/03 04:08:11;;;;;;;55.08;20.60;;;;;;;1.53;100.00;102130.97;5202679;28;20087;-73
2022/12/03 04:13:30;;;;;;;52.58;20.98;;;;;;;1.52;100.00;102131.91;5203292;28;20026;-74
2022/12/03 04:16:00;;;;;;;54.55;23.13;;;;;;;1.52;100.00;102128.41;5202964;28;20026;-74
2022/12/03 04:18:43;;;;;;;55.70;21.35;;;;;;;1.53;100.00;102132.78;5202545;28;20445;-73
2022/12/03 04:24:06;;;;;;;53.22;22.27;;;;;;;1.52;100.00;102131.06;5202919;28;20041;-72
2022/12/03 04:29:26;;;;;;;49.95;21.45;;;;;;;1.53;100.00;102122.19;5190428;28;20402;-73
2022/12/03 04:37:34;;;;;;;56.63;22.40;;;;;;;1.45;100.00;102124.34;5189844;28;20571;-73
2022/12/03 04:40:59;;;;;;;51.25;20.95;;;;;;;1.45;100.00;102119.91;5202814;28;20116;-73
2022/12/03 04:42:55;;;;;;;54.38;22.17;;;;;;;1.48;100.00;102121.56;5202864;28;20100;-73
2022/12/03 04:45:26;;;;;;;53.80;20.95;;;;;;;1.50;100.00;102112.59;5202102;28;20017;-72
2022/12/03 04:47:56;;;;;;;51.92;21.67;;;;;;;1.52;100.00;102126.63;5202349;28;20057;-73
2022/12/03 04:50:26;;;;;;;50.97;21.23;;;;;;;1.53;100.00;102122.19;5202531;28;20021;-73
2022/12/03 04:52:57;;;;;;;52.28;21.50;;;;;;;1.51;100.00;102105.56;5202603;28;20029;-74
2022/12/03 04:55:27;;;;;;;55.28;21.35;;;;;;;1.52;100.00;102120.47;5203279;28;20471;-72
2022/12/03 04:57:58;;;;;;;51.47;19.65;;;;;;;1.52;100.00;102107.25;5201802;28;20387;-73
2022/12/03 05:00:28;;;;;;;62.63;22.92;;;;;;;1.52;100.00;102107.25;5202638;28;20029;-73
2022/12/03 05:02:59;;;;;;;57.17;21.05;;;;;;;1.51;100.00;102100.28;5202625;28;20487;-73
2022/12/03 05:05:29;;;;;;;55.13;20.60;;;;;;;1.50;100.00;102107.31;5202443;28;20021;-73
2022/12/03 05:08:00;;;;;;;53.35;20.02;;;;;;;1.50;100.00;102107.31;5202005;28;20111;-73
2022/12/03 05:10:30;;;;;;;56.10;20.90;;;;;;;1.53;100.00;102103.69;5205791;28;20453;-72
2022/12/03 05:13:01;;;;;;;55.80;21.85;;;;;;;1.49;100.00;102105.59;5206167;28;20493;-72
2022/12/03 05:15:31;;;;;;;58.35;22.75;;;;;;;1.50;100.00;102106.47;5206267;28;20471;-72
2022/12/03 05:18:02;;;;;;;50.80;20.35;;;;;;;1.49;100.00;102110.91;5206076;28;20029;-73
2022/12/03 05:20:41;;;;;;;52.20;20.65;;;;;;;1.48;100.00;102109.19;5206373;28;20021;-74
2022/12/03 05:23:13;;;;;;;58.17;22.65;;;;;;;1.49;100.00;102099.47;5207878;28;20467;-73
2022/12/03 05:25:43;;;;;;;58.80;21.60;;;;;;;1.48;100.00;102103.06;5206739;28;20048;-73
2022/12/03 05:28:14;;;;;;;59.28;22.05;;;;;;;1.51;100.00;102097.63;5194776;28;20026;-73
2022/12/03 05:30:44;;;;;;;63.47;23.02;;;;;;;1.52;100.00;102105.47;5204234;28;20064;-73
2022/12/03 05:33:15;;;;;;;59.42;22.00;;;;;;;1.50;100.00;102095.88;5205570;28;20018;-72
2022/12/03 05:35:46;;;;;;;57.97;21.23;;;;;;;1.48;100.00;102097.75;5205661;28;20029;-72
2022/12/03 05:38:16;;;;;;;56.08;22.30;;;;;;;1.49;100.00;102095.03;5205641;28;20109;-72
2022/12/03 05:40:47;;;;;;;66.93;24.10;;;;;;;1.50;100.00;102098.53;5205922;28;20462;-73
2022/12/03 05:43:17;;;;;;;53.00;21.38;;;;;;;1.48;100.00;102093.31;5205892;28;20052;-73
2022/12/03 05:45:48;;;;;;;60.75;23.40;;;;;;;1.48;100.00;102097.75;5205435;28;20466;-73
2022/12/03 05:48:18;;;;;;;59.95;23.45;;;;;;;1.48;100.00;102098.63;5205295;28;20116;-74
2022/12/03 05:50:48;;;;;;;55.45;21.55;;;;;;;1.50;100.00;102098.53;5206101;28;20171;-74
2022/12/03 05:53:19;;;;;;;57.50;21.58;;;;;;;1.51;100.00;102085.25;5205911;28;20056;-73
2022/12/03 05:55:49;;;;;;;60.17;21.90;;;;;;;1.52;100.00;102086.09;5205614;28;20410;-73
2022/12/03 05:58:20;;;;;;;62.72;22.77;;;;;;;1.52;100.00;102083.47;5205104;28;20370;-74
2022/12/03 06:00:50;;;;;;;60.38;22.08;;;;;;;1.53;100.00;102086.00;5205660;28;20542;-73
2022/12/03 06:03:21;;;;;;;60.88;22.65;;;;;;;1.51;100.00;102082.59;5205397;28;20083;-73
2022/12/03 06:05:51;;;;;;;56.72;21.33;;;;;;;1.52;100.00;102083.47;5205448;28;20045;-73
2022/12/03 06:08:21;;;;;;;61.35;22.13;;;;;;;1.48;100.00;102087.19;5205022;28;20050;-74
2022/12/03 06:10:52;;;;;;;59.10;22.17;;;;;;;1.45;100.00;102082.03;5204813;28;20049;-74
2022/12/03 06:13:22;;;;;;;58.10;22.10;;;;;;;1.37;100.00;102084.22;5205411;28;20592;-73
2022/12/03 06:15:53;;;;;;;58.03;22.42;;;;;;;1.34;100.00;102074.66;5205232;28;20448;-73
2022/12/03 06:18:23;;;;;;;55.85;21.73;;;;;;;1.35;100.00;102083.44;5205280;28;20489;-73
2022/12/03 06:20:54;;;;;;;58.63;22.33;;;;;;;1.36;100.00;102085.16;5205522;28;20548;-73
2022/12/03 06:23:24;;;;;;;64.45;25.20;;;;;;;1.38;100.00;102080.66;5204956;28;20087;-73
2022/12/03 06:25:55;;;;;;;61.70;23.80;;;;;;;1.40;100.00;102073.47;5203668;28;20055;-73
2022/12/03 06:28:25;;;;;;;61.22;24.00;;;;;;;1.43;100.00;102078.63;5191902;28;20412;-73
2022/12/03 06:30:55;;;;;;;59.78;22.45;;;;;;;1.45;100.00;102079.41;5204474;28;20119;-73
2022/12/03 06:33:26;;;;;;;57.97;21.88;;;;;;;1.41;100.00;102084.00;5188606;28;20428;-74
2022/12/03 06:35:56;;;;;;;63.60;23.50;;;;;;;1.43;100.00;102076.84;5200457;28;20041;-73
2022/12/03 06:38:27;;;;;;;62.65;23.30;;;;;;;1.44;100.00;102088.25;5203259;28;20108;-72
2022/12/03 06:40:57;;;;;;;63.40;23.10;;;;;;;1.47;100.00;102090.78;5203511;28;20311;-73
2022/12/03 06:43:29;;;;;;;54.00;21.35;;;;;;;1.49;100.00;102088.88;5202607;28;20059;-73
2022/12/03 06:46:00;;;;;;;64.22;23.33;;;;;;;1.51;100.00;102084.41;5203556;28;20320;-72
2022/12/03 06:48:30;;;;;;;59.88;24.33;;;;;;;1.53;100.00;102090.44;5202588;28;20457;-73
2022/12/03 06:51:02;;;;;;;56.75;23.73;;;;;;;1.54;100.00;102089.50;5203179;28;20025;-72
2022/12/03 06:53:32;;;;;;;62.88;25.00;;;;;;;1.56;100.00;102095.59;5203083;28;20045;-72
2022/12/03 06:56:03;;;;;;;67.15;25.85;;;;;;;1.55;100.00;102088.56;5203575;28;20117;-73
2022/12/03 06:58:33;;;;;;;60.53;23.15;;;;;;;1.53;100.00;102086.00;5202704;28;20033;-73
2022/12/03 07:01:04;;;;;;;61.22;22.98;;;;;;;1.51;100.00;102079.97;5202831;28;20072;-73
2022/12/03 07:03:35;;;;;;;64.78;23.92;;;;;;;1.52;100.00;102079.03;5203491;28;20120;-72
2022/12/03 07:06:05;;;;;;;56.58;22.63;;;;;;;1.53;100.00;102074.59;5203129;28;20112;-71
2022/12/03 07:08:36;;;;;;;66.95;24.00;;;;;;;1.52;100.00;102079.03;5202750;28;20014;-71
2022/12/03 07:13:57;;;;;;;65.05;25.30;;;;;;;1.52;100.00;102084.31;5202939;28;20021;-71
2022/12/03 07:16:28;;;;;;;57.97;22.10;;;;;;;1.55;100.00;102083.28;5202569;28;20032;-71
2022/12/03 07:19:13;;;;;;;61.58;25.15;;;;;;;1.57;100.00;102080.59;5177881;28;20049;-71
2022/12/03 07:21:44;;;;;;;64.13;24.30;;;;;;;1.55;100.00;102080.63;5201914;28;20029;-71
2022/12/03 07:24:14;;;;;;;69.30;26.50;;;;;;;1.57;100.00;102083.22;5202336;28;20080;-71
2022/12/03 07:26:45;;;;;;;63.38;24.98;;;;;;;1.57;100.00;102080.59;5200868;28;20025;-71
2022/12/03 07:29:15;;;;;;;66.20;23.83;;;;;;;1.56;100.00;102082.38;5188491;28;20083;-71
2022/12/03 07:31:46;;;;;;;73.32;26.25;;;;;;;1.56;100.00;102074.44;5201070;28;20103;-71
2022/12/03 07:34:19;;;;;;;66.88;26.92;;;;;;;1.58;100.00;102075.19;5207282;28;20021;-71
2022/12/03 07:36:49;;;;;;;63.60;23.90;;;;;;;1.61;100.00;102075.06;5201039;28;20060;-71
2022/12/03 07:39:20;;;;;;;65.18;23.00;;;;;;;1.63;100.00;102072.31;5202596;28;20491;-71
2022/12/03 07:41:51;;;;;;;71.03;25.60;;;;;;;1.63;100.00;102078.47;5203002;28;20083;-71
2022/12/03 07:44:21;;;;;;;65.72;24.42;;;;;;;1.66;100.00;102064.25;5202891;28;20387;-71
2022/12/03 07:46:52;;;;;;;63.15;24.25;;;;;;;1.70;100.00;102071.06;5201335;28;20051;-71
2022/12/03 07:49:23;;;;;;;68.47;26.15;;;;;;;1.70;100.00;102076.34;5201146;28;20529;-71
2022/12/03 07:51:56;;;;;;;64.50;26.00;;;;;;;1.72;100.00;102078.00;5202821;28;20045;-71
2022/12/03 07:54:26;;;;;;;67.78;24.45;;;;;;;1.73;100.00;102077.06;5202644;28;20022;-72
2022/12/03 07:56:56;;;;;;;63.78;24.60;;;;;;;1.73;100.00;102076.22;5202013;28;20387;-72
2022/12/03 07:59:27;;;;;;;67.28;26.38;;;;;;;1.73;100.00;102082.34;5202539;28;20112;-72
2022/12/03 08:01:58;;;;;;;63.85;24.55;;;;;;;1.73;100.00;102074.41;5203249;28;20056;-72
2022/12/03 08:04:28;;;;;;;71.15;24.42;;;;;;;1.76;100.00;102076.91;5202760;28;20049;-72
2022/12/03 08:06:59;;;;;;;64.22;24.35;;;;;;;1.78;100.00;102079.47;5200779;28;20112;-72
2022/12/03 08:09:30;;;;;;;63.55;24.23;;;;;;;1.76;100.00;102071.63;5198951;28;20026;-72
2022/12/03 08:12:13;;;;;;;74.45;27.73;;;;;;;1.80;100.00;102077.59;5199583;28;20021;-72
2022/12/03 08:14:43;;;;;;;67.95;25.17;;;;;;;1.79;100.00;102081.19;5199384;28;20035;-72
2022/12/03 08:17:16;;;;;;;69.05;24.63;;;;;;;1.79;100.00;102076.72;5198623;28;20052;-72
2022/12/03 08:19:47;;;;;;;68.68;25.02;;;;;;;1.76;100.00;102087.50;5202728;28;20037;-72
2022/12/03 08:22:17;;;;;;;67.90;25.15;;;;;;;1.77;100.00;102083.06;5201131;28;20463;-72
2022/12/03 08:24:48;;;;;;;67.22;24.73;;;;;;;1.83;100.00;102081.88;5202827;28;20048;-72
2022/12/03 08:27:18;;;;;;;76.82;26.73;;;;;;;1.84;100.00;102083.59;5198639;28;20014;-72
2022/12/03 08:29:49;;;;;;;68.28;24.88;;;;;;;1.89;100.00;102087.69;5193341;28;20029;-71
2022/12/03 08:32:19;;;;;;;65.47;25.30;;;;;;;1.90;100.00;102083.25;5202116;28;20022;-72
2022/12/03 08:34:49;;;;;;;73.13;25.20;;;;;;;1.95;100.00;102090.03;5202325;28;20037;-72
2022/12/03 08:37:20;;;;;;;72.25;25.55;;;;;;;1.97;100.00;102082.03;5200733;28;20057;-72
2022/12/03 08:39:53;;;;;;;66.75;23.95;;;;;;;1.99;100.00;102085.44;5202481;28;20531;-72
2022/12/03 08:42:40;;;;;;;69.10;25.25;;;;;;;1.99;100.00;102080.97;5202224;28;20026;-72
2022/12/03 08:45:38;;;;;;;68.30;24.33;;;;;;;2.03;100.00;102081.69;5205851;28;20438;-71
2022/12/03 08:48:26;;;;;;;72.03;25.17;;;;;;;2.05;100.00;102082.44;5205846;28;20025;-71
2022/12/03 08:51:11;;;;;;;66.88;25.70;;;;;;;2.12;100.00;102077.72;5206791;28;20029;-71
2022/12/03 08:53:48;;;;;;;72.93;25.10;;;;;;;2.12;100.00;102083.84;5206676;28;20483;-71
2022/12/03 08:56:20;;;;;;;69.53;25.40;;;;;;;2.12;100.00;102083.00;5206198;28;20155;-71
2022/12/03 08:58:54;;;;;;;67.25;25.92;;;;;;;2.19;100.00;102087.88;5205726;28;20403;-71
2022/12/03 09:01:31;;;;;;;67.53;24.67;;;;;;;2.22;100.00;102086.88;5204733;28;20025;-71
2022/12/03 09:04:20;;;;;;;62.83;23.52;;;;;;;2.19;100.00;102087.88;5206325;28;20029;-71
2022/12/03 09:06:52;;;;;;;63.20;25.73;;;;;;;2.16;100.00;102084.53;5205636;28;20116;-71
2022/12/03 09:09:23;;;;;;;61.45;24.83;;;;;;;2.15;100.00;102081.03;5205950;28;20033;-71
2022/12/03 09:11:54;;;;;;;73.88;27.02;;;;;;;2.18;100.00;102080.03;5205784;28;20018;-71
2022/12/03 09:14:25;;;;;;;69.28;25.52;;;;;;;2.18;100.00;102083.53;5205598;28;20087;-71
2022/12/03 09:16:55;;;;;;;74.55;26.50;;;;;;;2.17;100.00;102080.97;5205537;28;20033;-71
2022/12/03 09:19:29;;;;;;;69.10;25.58;;;;;;;2.14;100.00;102079.31;5205951;28;20028;-71
2022/12/03 09:22:00;;;;;;;60.90;24.85;;;;;;;2.20;100.00;102078.97;5205993;28;20032;-71
2022/12/03 09:24:30;;;;;;;64.72;24.92;;;;;;;2.15;100.00;102078.38;5205370;28;20418;-71
2022/12/03 09:27:01;;;;;;;66.50;24.38;;;;;;;2.17;100.00;102073.88;5203980;28;20515;-71
2022/12/03 09:29:31;;;;;;;62.53;25.10;;;;;;;2.18;100.00;102075.56;5194051;28;20389;-71
2022/12/03 09:32:02;;;;;;;70.15;26.60;;;;;;;2.21;100.00;102071.91;5205365;28;20168;-71
2022/12/03 09:34:33;;;;;;;71.07;27.35;;;;;;;2.23;100.00;102064.75;5206176;28;20028;-71
2022/12/03 09:37:04;;;;;;;64.38;24.20;;;;;;;2.32;100.00;102065.09;5204602;28;20120;-71
2022/12/03 09:39:35;;;;;;;68.03;26.02;;;;;;;2.33;100.00;102055.34;5206048;28;20108;-71
2022/12/03 09:42:06;;;;;;;73.38;26.80;;;;;;;2.34;100.00;102062.34;5205352;28;20037;-71
2022/12/03 09:44:37;;;;;;;67.25;25.75;;;;;;;2.29;100.00;102065.25;5205567;28;20025;-71
2022/12/03 09:47:08;;;;;;;65.78;24.35;;;;;;;2.34;100.00;102054.41;5204723;28;20429;-71
2022/12/03 09:49:39;;;;;;;70.22;27.02;;;;;;;2.33;100.00;102061.50;5205362;28;20087;-71
2022/12/03 09:52:24;;;;;;;65.75;25.70;;;;;;;2.43;100.00;102058.38;5205228;28;20017;-71
2022/12/03 09:54:55;;;;;;;72.28;26.98;;;;;;;2.43;100.00;102055.72;5204833;28;20277;-71
2022/12/03 09:57:25;;;;;;;66.90;24.60;;;;;;;2.44;100.00;102052.97;5203542;28;20052;-71
2022/12/03 09:59:57;;;;;;;71.47;26.08;;;;;;;2.47;100.00;102055.47;5204764;28;20060;-71
2022/12/03 10:02:29;;;;;;;64.32;24.52;;;;;;;2.41;100.00;102047.88;5205165;28;20029;-71
2022/12/03 10:05:00;;;;;;;65.85;24.67;;;;;;;2.45;100.00;102053.81;5205400;28;20036;-71
2022/12/03 10:07:30;;;;;;;66.28;24.77;;;;;;;2.53;100.00;102039.22;5204536;28;20069;-71
2022/12/03 10:10:01;;;;;;;63.33;24.27;;;;;;;2.52;100.00;102036.66;5204979;28;20044;-72
2022/12/03 10:12:31;;;;;;;67.90;25.27;;;;;;;2.52;100.00;102042.81;5204654;28;20026;-72
2022/12/03 10:15:02;;;;;;;68.43;23.75;;;;;;;2.54;100.00;102032.97;5204889;28;20044;-71
2022/12/03 10:17:32;;;;;;;64.00;24.70;;;;;;;2.52;100.00;102032.22;5204278;28;20365;-71
2022/12/03 10:20:03;;;;;;;63.92;24.17;;;;;;;2.56;100.00;102032.88;5204859;28;20100;-71
2022/12/03 10:22:36;;;;;;;61.03;23.42;;;;;;;2.60;100.00;102029.97;5204797;28;20033;-72
2022/12/03 10:25:15;;;;;;;61.33;23.10;;;;;;;2.56;100.00;102033.78;5203966;28;20021;-72
2022/12/03 10:28:00;;;;;;;61.58;25.10;;;;;;;2.63;100.00;102022.81;5183764;28;20022;-72
2022/12/03 10:30:31;;;;;;;65.00;24.58;;;;;;;2.63;100.00;102023.66;5201314;28;20060;-73
2022/12/03 10:33:12;;;;;;;58.90;23.83;;;;;;;2.66;100.00;102012.03;5204441;28;20435;-73
2022/12/03 10:35:43;;;;;;;58.85;23.45;;;;;;;2.61;100.00;102014.97;5204558;28;20021;-72
2022/12/03 10:38:16;;;;;;;64.78;24.42;;;;;;;2.61;100.00;102009.66;5204029;28;20029;-73
2022/12/03 10:40:47;;;;;;;64.47;24.27;;;;;;;2.60;100.00;102005.28;5201796;28;20417;-71
2022/12/03 10:43:18;;;;;;;67.82;25.60;;;;;;;2.68;100.00;102003.06;5204031;28;20090;-72
2022/12/03 10:46:00;;;;;;;63.75;23.92;;;;;;;2.73;100.00;101995.72;5203900;28;20033;-71
2022/12/03 10:48:30;;;;;;;61.55;23.55;;;;;;;2.76;100.00;101997.31;5203848;28;20071;-72
2022/12/03 10:51:05;;;;;;;64.25;24.17;;;;;;;2.77;100.00;101994.59;5204322;28;20057;-72
2022/12/03 10:53:38;;;;;;;58.35;22.80;;;;;;;2.68;100.00;101987.16;5203898;28;20052;-72
2022/12/03 10:56:15;;;;;;;55.08;22.35;;;;;;;2.60;100.00;101984.94;5203416;28;20033;-72
2022/12/03 10:58:45;;;;;;;64.00;22.90;;;;;;;2.59;100.00;101985.03;5197676;28;20392;-71
2022/12/03 11:01:24;;;;;;;66.90;24.10;;;;;;;2.63;100.00;101983.94;5188328;28;20032;-72
2022/12/03 11:04:02;;;;;;;66.15;23.65;;;;;;;2.64;100.00;101980.34;5196469;28;20025;-72
2022/12/03 11:06:32;;;;;;;75.95;24.73;;;;;;;2.65;100.00;101970.59;5202569;28;20029;-71
2022/12/03 11:09:05;;;;;;;60.58;24.05;;;;;;;2.70;100.00;101979.13;5203257;28;20452;-72
2022/12/03 11:11:35;;;;;;;63.30;23.65;;;;;;;2.67;100.00;101974.88;5204053;28;20293;-71
2022/12/03 11:14:09;;;;;;;60.35;23.25;;;;;;;2.69;100.00;101972.13;5203060;28;20033;-72
2022/12/03 11:16:39;;;;;;;60.15;22.20;;;;;;;2.67;100.00;101979.31;5201234;28;20087;-72
2022/12/03 11:19:32;;;;;;;59.25;22.10;;;;;;;2.64;100.00;101977.69;5202891;28;20041;-71
2022/12/03 11:22:05;;;;;;;58.05;23.20;;;;;;;2.64;100.00;101975.03;5203990;28;20536;-71
2022/12/03 11:24:38;;;;;;;67.38;24.30;;;;;;;2.60;100.00;101969.03;5203761;28;20026;-71
2022/12/03 11:27:08;;;;;;;60.53;24.67;;;;;;;2.59;100.00;101963.84;5198265;28;20220;-71
2022/12/03 11:29:49;;;;;;;59.20;22.80;;;;;;;2.56;100.00;101956.94;5183766;28;20030;-72
2022/12/03 11:32:38;;;;;;;57.78;22.85;;;;;;;2.61;100.00;101964.63;5199845;28;20025;-72
2022/12/03 11:35:26;;;;;;;66.97;25.70;;;;;;;2.67;100.00;101958.97;5202288;28;20037;-73
2022/12/03 11:38:35;;;;;;;65.78;24.17;;;;;;;2.72;100.00;101956.06;5201361;28;20029;-71
2022/12/03 11:41:06;;;;;;;68.90;24.73;;;;;;;2.70;100.00;101948.19;5201863;28;20567;-73
2022/12/03 11:44:22;;;;;;;70.85;25.35;;;;;;;2.65;100.00;101944.09;5200722;28;20311;-71
2022/12/03 11:46:53;;;;;;;64.80;25.65;;;;;;;2.56;100.00;101938.41;5201492;28;20479;-71
2022/12/03 11:49:32;;;;;;;62.58;24.70;;;;;;;2.50;100.00;101937.88;5200792;28;20410;-73
2022/12/03 11:52:18;;;;;;;64.45;24.17;;;;;;;2.52;100.00;101938.66;5202367;28;20017;-72
2022/12/03 11:54:53;;;;;;;58.83;22.42;;;;;;;2.53;100.00;101937.72;5201665;28;20033;-72
2022/12/03 11:57:27;;;;;;;72.82;26.70;;;;;;;2.56;100.00;101935.75;5201904;28;20040;-72
2022/12/03 12:00:04;;;;;;;66.80;26.13;;;;;;;2.59;100.00;101929.41;5201795;28;20029;-72